Terminal Aerodrome Forecast
Issued by NWS

Current Version | Previous Version | Text Only | Print | Product List | Glossary On
Versions: 1 2 3 4 5 6 7 8 9 10 11 12 13 14 15 16 17 18 19 20 21 22 23 24 25 26 27 28 29 30 31 32 33 34 35 36 37 38
000
FTUS46 KOTX 202338
TAFCOE
TAF
KCOE 202338Z 2100/2124 14003KT 6SM -RA BR OVC015
     FM210200 12010KT 5SM -RA BR OVC012
     FM210900 21012KT 5SM -RA BR OVC010 WS020/23043KT
     FM211500 22017G22KT 6SM BR VCSH OVC009
     FM211900 23015G22KT P6SM SCT015 BKN090
      AMD LTD TO CLD AND VIS=

USA.gov is the U.S. government's official web portal to all federal, state and local government web resources and services.